sensor_id;sensor_type;location;lat;lon;timestamp;temperature;humidity
15133;DHT22;7667;51.232;17.110;2023-04-01T00:00:53;7.50;99.90
15133;DHT22;7667;51.232;17.110;2023-04-01T00:03:22;7.50;99.90
15133;DHT22;7667;51.232;17.110;2023-04-01T00:05:50;7.40;99.90
15133;DHT22;7667;51.232;17.110;2023-04-01T00:08:17;7.40;99.90
15133;DHT22;7667;51.232;17.110;2023-04-01T00:10:45;7.40;99.90
15133;DHT22;7667;51.232;17.110;2023-04-01T00:13:13;7.50;99.90
15133;DHT22;7667;51.232;17.110;2023-04-01T00:15:41;7.40;99.90
15133;DHT22;7667;51.232;17.110;2023-04-01T00:18:09;7.30;99.90
15133;DHT22;7667;51.232;17.110;2023-04-01T00:20:37;7.30;99.90
15133;DHT22;7667;51.232;17.110;2023-04-01T00:23:05;7.30;99.90
15133;DHT22;7667;51.232;17.110;2023-04-01T00:25:32;7.30;99.90
15133;DHT22;7667;51.232;17.110;2023-04-01T00:28:00;7.30;99.90
15133;DHT22;7667;51.232;17.110;2023-04-01T00:30:28;7.30;99.90
15133;DHT22;7667;51.232;17.110;2023-04-01T00:32:55;7.30;99.90
15133;DHT22;7667;51.232;17.110;2023-04-01T00:35:23;7.30;99.90
15133;DHT22;7667;51.232;17.110;2023-04-01T00:37:50;7.30;99.90
15133;DHT22;7667;51.232;17.110;2023-04-01T00:40:28;7.20;99.90
15133;DHT22;7667;51.232;17.110;2023-04-01T00:42:58;7.20;99.90
15133;DHT22;7667;51.232;17.110;2023-04-01T00:45:39;7.10;99.90
15133;DHT22;7667;51.232;17.110;2023-04-01T00:53:41;6.90;99.90
15133;DHT22;7667;51.232;17.110;2023-04-01T00:56:21;6.90;99.90
15133;DHT22;7667;51.232;17.110;2023-04-01T00:58:57;6.90;99.90
15133;DHT22;7667;51.232;17.110;2023-04-01T01:01:29;7.00;99.90
15133;DHT22;7667;51.232;17.110;2023-04-01T01:03:58;7.10;99.90
15133;DHT22;7667;51.232;17.110;2023-04-01T01:06:40;7.10;99.90
15133;DHT22;7667;51.232;17.110;2023-04-01T01:15:11;7.40;99.90
15133;DHT22;7667;51.232;17.110;2023-04-01T01:17:48;7.50;99.90
15133;DHT22;7667;51.232;17.110;2023-04-01T01:23:57;7.70;99.90
15133;DHT22;7667;51.232;17.110;2023-04-01T01:26:59;7.70;99.90
15133;DHT22;7667;51.232;17.110;2023-04-01T01:30:04;7.70;99.90
15133;DHT22;7667;51.232;17.110;2023-04-01T01:38:15;7.60;99.90
15133;DHT22;7667;51.232;17.110;2023-04-01T01:40:47;7.50;99.90
15133;DHT22;7667;51.232;17.110;2023-04-01T01:43:22;7.60;99.90
15133;DHT22;7667;51.232;17.110;2023-04-01T01:46:00;7.60;99.90
15133;DHT22;7667;51.232;17.110;2023-04-01T01:48:31;7.70;99.90
15133;DHT22;7667;51.232;17.110;2023-04-01T01:51:00;7.70;99.90
15133;DHT22;7667;51.232;17.110;2023-04-01T01:53:28;7.70;99.90
15133;DHT22;7667;51.232;17.110;2023-04-01T01:55:55;7.70;99.90
15133;DHT22;7667;51.232;17.110;2023-04-01T01:58:43;7.70;99.90
15133;DHT22;7667;51.232;17.110;2023-04-01T02:01:19;7.60;99.90
15133;DHT22;7667;51.232;17.110;2023-04-01T02:03:51;7.70;99.90
15133;DHT22;7667;51.232;17.110;2023-04-01T02:06:22;7.70;99.90
15133;DHT22;7667;51.232;17.110;2023-04-01T02:08:52;7.70;99.90
15133;DHT22;7667;51.232;17.110;2023-04-01T02:11:33;7.80;99.90
15133;DHT22;7667;51.232;17.110;2023-04-01T02:14:43;7.80;99.90
15133;DHT22;7667;51.232;17.110;2023-04-01T02:17:14;7.80;99.90
15133;DHT22;7667;51.232;17.110;2023-04-01T02:19:57;7.70;99.90
15133;DHT22;7667;51.232;17.110;2023-04-01T02:22:35;7.70;99.90
15133;DHT22;7667;51.232;17.110;2023-04-01T02:25:07;7.70;99.90
15133;DHT22;7667;51.232;17.110;2023-04-01T02:27:39;7.70;99.90
15133;DHT22;7667;51.232;17.110;2023-04-01T02:30:08;7.70;99.90
15133;DHT22;7667;51.232;17.110;2023-04-01T02:32:37;7.70;99.90
15133;DHT22;7667;51.232;17.110;2023-04-01T02:35:10;7.70;99.90
15133;DHT22;7667;51.232;17.110;2023-04-01T02:37:40;7.60;99.90
15133;DHT22;7667;51.232;17.110;2023-04-01T02:40:13;7.60;99.90
15133;DHT22;7667;51.232;17.110;2023-04-01T02:42:42;7.60;99.90
15133;DHT22;7667;51.232;17.110;2023-04-01T02:45:10;7.60;99.90
15133;DHT22;7667;51.232;17.110;2023-04-01T02:47:39;7.60;99.90
15133;DHT22;7667;51.232;17.110;2023-04-01T02:50:07;7.60;99.90
15133;DHT22;7667;51.232;17.110;2023-04-01T02:52:35;7.60;99.90
15133;DHT22;7667;51.232;17.110;2023-04-01T02:55:03;7.60;99.90
15133;DHT22;7667;51.232;17.110;2023-04-01T02:57:33;7.60;99.90
15133;DHT22;7667;51.232;17.110;2023-04-01T03:00:00;7.60;99.90
15133;DHT22;7667;51.232;17.110;2023-04-01T03:02:28;7.60;99.90
15133;DHT22;7667;51.232;17.110;2023-04-01T03:04:56;7.60;99.90
15133;DHT22;7667;51.232;17.110;2023-04-01T03:07:23;7.60;99.90
15133;DHT22;7667;51.232;17.110;2023-04-01T03:09:51;7.60;99.90
15133;DHT22;7667;51.232;17.110;2023-04-01T03:12:18;7.60;99.90
15133;DHT22;7667;51.232;17.110;2023-04-01T03:14:46;7.60;99.90
15133;DHT22;7667;51.232;17.110;2023-04-01T03:17:13;7.60;99.90
15133;DHT22;7667;51.232;17.110;2023-04-01T03:19:41;7.60;99.90
15133;DHT22;7667;51.232;17.110;2023-04-01T03:22:10;7.60;99.90
15133;DHT22;7667;51.232;17.110;2023-04-01T03:24:38;7.60;99.90
15133;DHT22;7667;51.232;17.110;2023-04-01T03:27:06;7.60;99.90
15133;DHT22;7667;51.232;17.110;2023-04-01T03:29:33;7.70;99.90
15133;DHT22;7667;51.232;17.110;2023-04-01T03:32:00;7.70;99.90
15133;DHT22;7667;51.232;17.110;2023-04-01T03:34:28;7.70;99.90
15133;DHT22;7667;51.232;17.110;2023-04-01T03:36:55;7.70;99.90
15133;DHT22;7667;51.232;17.110;2023-04-01T03:39:23;7.70;99.90
15133;DHT22;7667;51.232;17.110;2023-04-01T03:41:51;7.80;99.90
15133;DHT22;7667;51.232;17.110;2023-04-01T03:44:18;7.80;99.90
15133;DHT22;7667;51.232;17.110;2023-04-01T03:46:45;7.80;99.90
15133;DHT22;7667;51.232;17.110;2023-04-01T03:49:13;7.70;99.90
15133;DHT22;7667;51.232;17.110;2023-04-01T03:51:42;7.70;99.90
15133;DHT22;7667;51.232;17.110;2023-04-01T03:54:10;7.70;99.90
15133;DHT22;7667;51.232;17.110;2023-04-01T03:56:38;7.70;99.90
15133;DHT22;7667;51.232;17.110;2023-04-01T03:59:07;7.70;99.90
15133;DHT22;7667;51.232;17.110;2023-04-01T04:01:35;7.70;99.90
15133;DHT22;7667;51.232;17.110;2023-04-01T04:04:03;7.70;99.90
15133;DHT22;7667;51.232;17.110;2023-04-01T04:06:30;7.70;99.90
15133;DHT22;7667;51.232;17.110;2023-04-01T04:08:58;7.70;99.90
15133;DHT22;7667;51.232;17.110;2023-04-01T04:11:25;7.70;99.90
15133;DHT22;7667;51.232;17.110;2023-04-01T04:13:53;7.70;99.90
15133;DHT22;7667;51.232;17.110;2023-04-01T04:16:23;7.70;99.90
15133;DHT22;7667;51.232;17.110;2023-04-01T04:18:50;7.70;99.90
15133;DHT22;7667;51.232;17.110;2023-04-01T04:21:18;7.80;99.90
15133;DHT22;7667;51.232;17.110;2023-04-01T04:23:45;7.70;99.90
15133;DHT22;7667;51.232;17.110;2023-04-01T04:26:14;7.80;99.90
15133;DHT22;7667;51.232;17.110;2023-04-01T04:28:42;7.70;99.90
15133;DHT22;7667;51.232;17.110;2023-04-01T04:31:09;7.80;99.90
15133;DHT22;7667;51.232;17.110;2023-04-01T04:33:37;7.80;99.90
15133;DHT22;7667;51.232;17.110;2023-04-01T04:36:05;7.80;99.90
15133;DHT22;7667;51.232;17.110;2023-04-01T04:38:33;7.80;99.90
15133;DHT22;7667;51.232;17.110;2023-04-01T04:41:00;7.70;99.90
15133;DHT22;7667;51.232;17.110;2023-04-01T04:43:27;7.80;99.90
15133;DHT22;7667;51.232;17.110;2023-04-01T04:45:55;7.70;99.90
15133;DHT22;7667;51.232;17.110;2023-04-01T04:48:22;7.80;99.90
15133;DHT22;7667;51.232;17.110;2023-04-01T04:50:50;7.80;99.90
15133;DHT22;7667;51.232;17.110;2023-04-01T04:53:18;7.90;99.90
15133;DHT22;7667;51.232;17.110;2023-04-01T04:55:48;7.90;99.90
15133;DHT22;7667;51.232;17.110;2023-04-01T04:58:16;7.90;99.90
15133;DHT22;7667;51.232;17.110;2023-04-01T05:00:45;7.90;99.90
15133;DHT22;7667;51.232;17.110;2023-04-01T05:03:13;7.90;99.90
15133;DHT22;7667;51.232;17.110;2023-04-01T05:05:51;7.90;99.90
15133;DHT22;7667;51.232;17.110;2023-04-01T05:08:20;7.90;99.90
15133;DHT22;7667;51.232;17.110;2023-04-01T05:10:47;7.90;99.90
15133;DHT22;7667;51.232;17.110;2023-04-01T05:13:15;7.90;99.90
15133;DHT22;7667;51.232;17.110;2023-04-01T05:15:42;7.90;99.90
15133;DHT22;7667;51.232;17.110;2023-04-01T05:18:10;7.80;99.90
15133;DHT22;7667;51.232;17.110;2023-04-01T05:20:37;7.80;99.90
15133;DHT22;7667;51.232;17.110;2023-04-01T05:23:05;7.80;99.90
15133;DHT22;7667;51.232;17.110;2023-04-01T05:25:32;7.80;99.90
15133;DHT22;7667;51.232;17.110;2023-04-01T05:28:00;7.80;99.90
15133;DHT22;7667;51.232;17.110;2023-04-01T05:30:27;7.80;99.90
15133;DHT22;7667;51.232;17.110;2023-04-01T05:32:55;7.80;99.90
15133;DHT22;7667;51.232;17.110;2023-04-01T05:35:23;7.80;99.90
15133;DHT22;7667;51.232;17.110;2023-04-01T05:37:51;7.90;99.90
15133;DHT22;7667;51.232;17.110;2023-04-01T05:40:18;7.90;99.90
15133;DHT22;7667;51.232;17.110;2023-04-01T05:42:46;7.80;99.90
15133;DHT22;7667;51.232;17.110;2023-04-01T05:45:13;7.80;99.90
15133;DHT22;7667;51.232;17.110;2023-04-01T05:47:42;7.90;99.90
15133;DHT22;7667;51.232;17.110;2023-04-01T05:50:10;7.90;99.90
15133;DHT22;7667;51.232;17.110;2023-04-01T05:52:38;7.90;99.90
15133;DHT22;7667;51.232;17.110;2023-04-01T05:55:06;7.90;99.90
15133;DHT22;7667;51.232;17.110;2023-04-01T05:57:34;7.90;99.90
15133;DHT22;7667;51.232;17.110;2023-04-01T06:00:03;7.90;99.90
15133;DHT22;7667;51.232;17.110;2023-04-01T06:02:31;8.00;99.90
15133;DHT22;7667;51.232;17.110;2023-04-01T06:07:40;8.10;99.90
15133;DHT22;7667;51.232;17.110;2023-04-01T06:10:19;8.10;99.90
15133;DHT22;7667;51.232;17.110;2023-04-01T06:24:49;8.20;99.90
15133;DHT22;7667;51.232;17.110;2023-04-01T06:33:46;8.20;99.90
15133;DHT22;7667;51.232;17.110;2023-04-01T06:53:54;8.30;99.90
15133;DHT22;7667;51.232;17.110;2023-04-01T06:56:28;8.30;99.90
15133;DHT22;7667;51.232;17.110;2023-04-01T06:59:17;8.30;99.90
15133;DHT22;7667;51.232;17.110;2023-04-01T07:01:55;8.30;99.90
15133;DHT22;7667;51.232;17.110;2023-04-01T07:04:30;8.40;99.90
15133;DHT22;7667;51.232;17.110;2023-04-01T07:07:27;8.40;99.90
15133;DHT22;7667;51.232;17.110;2023-04-01T07:09:59;8.40;99.90
15133;DHT22;7667;51.232;17.110;2023-04-01T07:15:05;8.50;99.90
15133;DHT22;7667;51.232;17.110;2023-04-01T07:17:45;8.50;99.90
15133;DHT22;7667;51.232;17.110;2023-04-01T07:20:18;8.60;99.90
15133;DHT22;7667;51.232;17.110;2023-04-01T07:22:52;8.60;99.90
15133;DHT22;7667;51.232;17.110;2023-04-01T07:25:31;8.60;99.90
15133;DHT22;7667;51.232;17.110;2023-04-01T07:28:15;8.60;99.90
15133;DHT22;7667;51.232;17.110;2023-04-01T07:36:39;8.60;99.90
15133;DHT22;7667;51.232;17.110;2023-04-01T07:42:26;8.60;99.90
15133;DHT22;7667;51.232;17.110;2023-04-01T07:45:44;8.60;99.90
15133;DHT22;7667;51.232;17.110;2023-04-01T07:59:37;8.80;99.90
15133;DHT22;7667;51.232;17.110;2023-04-01T08:07:40;8.80;99.90
15133;DHT22;7667;51.232;17.110;2023-04-01T08:13:46;8.80;99.90
15133;DHT22;7667;51.232;17.110;2023-04-01T08:17:24;9.00;99.90
15133;DHT22;7667;51.232;17.110;2023-04-01T08:25:52;9.10;99.90
15133;DHT22;7667;51.232;17.110;2023-04-01T08:28:46;9.10;99.90
15133;DHT22;7667;51.232;17.110;2023-04-01T08:34:05;9.00;99.90
15133;DHT22;7667;51.232;17.110;2023-04-01T08:36:42;9.10;99.90
15133;DHT22;7667;51.232;17.110;2023-04-01T08:39:58;9.10;99.90
15133;DHT22;7667;51.232;17.110;2023-04-01T08:45:24;9.10;99.90
15133;DHT22;7667;51.232;17.110;2023-04-01T08:48:35;9.10;99.90
15133;DHT22;7667;51.232;17.110;2023-04-01T09:09:02;9.40;99.90
15133;DHT22;7667;51.232;17.110;2023-04-01T09:12:15;9.50;99.90
15133;DHT22;7667;51.232;17.110;2023-04-01T09:35:24;9.30;99.90
15133;DHT22;7667;51.232;17.110;2023-04-01T09:44:19;9.50;99.90
15133;DHT22;7667;51.232;17.110;2023-04-01T10:04:38;9.80;99.90
15133;DHT22;7667;51.232;17.110;2023-04-01T10:19:49;10.00;99.90
15133;DHT22;7667;51.232;17.110;2023-04-01T10:26:04;9.70;99.90
15133;DHT22;7667;51.232;17.110;2023-04-01T11:14:56;10.20;99.90
15133;DHT22;7667;51.232;17.110;2023-04-01T11:33:19;10.60;99.90
15133;DHT22;7667;51.232;17.110;2023-04-01T11:36:11;10.60;99.90
15133;DHT22;7667;51.232;17.110;2023-04-01T11:45:41;10.10;99.90
15133;DHT22;7667;51.232;17.110;2023-04-01T11:48:46;10.10;99.90
15133;DHT22;7667;51.232;17.110;2023-04-01T12:12:18;10.80;99.90
15133;DHT22;7667;51.232;17.110;2023-04-01T12:26:52;11.40;99.90
15133;DHT22;7667;51.232;17.110;2023-04-01T12:33:15;12.80;99.90
15133;DHT22;7667;51.232;17.110;2023-04-01T12:45:34;13.10;99.90
15133;DHT22;7667;51.232;17.110;2023-04-01T12:57:59;12.20;99.90
15133;DHT22;7667;51.232;17.110;2023-04-01T13:27:35;11.90;99.90
15133;DHT22;7667;51.232;17.110;2023-04-01T13:42:14;11.40;99.90
15133;DHT22;7667;51.232;17.110;2023-04-01T13:45:15;11.10;99.90
15133;DHT22;7667;51.232;17.110;2023-04-01T13:48:21;10.80;99.90
15133;DHT22;7667;51.232;17.110;2023-04-01T13:51:49;10.60;99.90
15133;DHT22;7667;51.232;17.110;2023-04-01T14:18:06;10.80;99.90
15133;DHT22;7667;51.232;17.110;2023-04-01T14:23:57;11.30;99.90
15133;DHT22;7667;51.232;17.110;2023-04-01T14:39:42;10.70;99.90
15133;DHT22;7667;51.232;17.110;2023-04-01T14:43:07;10.60;99.90
15133;DHT22;7667;51.232;17.110;2023-04-01T14:49:14;10.30;99.90
15133;DHT22;7667;51.232;17.110;2023-04-01T14:55:34;9.90;99.90
15133;DHT22;7667;51.232;17.110;2023-04-01T14:58:17;9.70;99.90
15133;DHT22;7667;51.232;17.110;2023-04-01T15:03:56;9.60;99.90
15133;DHT22;7667;51.232;17.110;2023-04-01T15:16:07;9.30;99.90
15133;DHT22;7667;51.232;17.110;2023-04-01T15:19:01;9.40;99.90
15133;DHT22;7667;51.232;17.110;2023-04-01T15:36:06;9.50;99.90
15133;DHT22;7667;51.232;17.110;2023-04-01T15:44:02;9.60;99.90
15133;DHT22;7667;51.232;17.110;2023-04-01T15:46:41;9.70;99.90
15133;DHT22;7667;51.232;17.110;2023-04-01T15:52:16;9.90;99.90
15133;DHT22;7667;51.232;17.110;2023-04-01T15:55:13;10.00;99.90
15133;DHT22;7667;51.232;17.110;2023-04-01T16:03:33;10.20;99.90
15133;DHT22;7667;51.232;17.110;2023-04-01T16:09:04;10.20;99.90
15133;DHT22;7667;51.232;17.110;2023-04-01T16:15:03;10.10;99.90
15133;DHT22;7667;51.232;17.110;2023-04-01T16:24:19;9.80;99.90
15133;DHT22;7667;51.232;17.110;2023-04-01T16:27:04;9.70;99.90
15133;DHT22;7667;51.232;17.110;2023-04-01T16:30:03;9.60;99.90
15133;DHT22;7667;51.232;17.110;2023-04-01T16:44:55;9.50;99.90
15133;DHT22;7667;51.232;17.110;2023-04-01T16:48:27;9.40;99.90
15133;DHT22;7667;51.232;17.110;2023-04-01T16:50:58;9.40;99.90
15133;DHT22;7667;51.232;17.110;2023-04-01T16:53:40;9.40;99.90
15133;DHT22;7667;51.232;17.110;2023-04-01T16:56:20;9.40;99.90
15133;DHT22;7667;51.232;17.110;2023-04-01T17:02:23;9.40;99.90
15133;DHT22;7667;51.232;17.110;2023-04-01T17:04:30;9.40;99.90
15133;DHT22;7667;51.232;17.110;2023-04-01T17:13:25;9.20;99.90
15133;DHT22;7667;51.232;17.110;2023-04-01T17:50:09;8.50;99.90
15133;DHT22;7667;51.232;17.110;2023-04-01T17:52:39;8.50;99.90
15133;DHT22;7667;51.232;17.110;2023-04-01T18:07:26;8.40;99.90
15133;DHT22;7667;51.232;17.110;2023-04-01T18:19:27;8.20;99.90
15133;DHT22;7667;51.232;17.110;2023-04-01T18:22:47;8.20;99.90
15133;DHT22;7667;51.232;17.110;2023-04-01T18:31:18;8.10;99.90
15133;DHT22;7667;51.232;17.110;2023-04-01T18:34:06;8.10;99.90
15133;DHT22;7667;51.232;17.110;2023-04-01T18:36:49;8.10;99.90
15133;DHT22;7667;51.232;17.110;2023-04-01T18:39:33;8.10;99.90
15133;DHT22;7667;51.232;17.110;2023-04-01T18:45:32;8.10;99.90
15133;DHT22;7667;51.232;17.110;2023-04-01T18:48:16;8.10;99.90
15133;DHT22;7667;51.232;17.110;2023-04-01T18:51:20;8.00;99.90
15133;DHT22;7667;51.232;17.110;2023-04-01T18:54:09;8.00;99.90
15133;DHT22;7667;51.232;17.110;2023-04-01T18:56:44;8.00;99.90
15133;DHT22;7667;51.232;17.110;2023-04-01T19:05:18;7.90;99.90
15133;DHT22;7667;51.232;17.110;2023-04-01T19:07:49;8.00;99.90
15133;DHT22;7667;51.232;17.110;2023-04-01T19:27:50;8.00;99.90
15133;DHT22;7667;51.232;17.110;2023-04-01T19:30:53;8.00;99.90
15133;DHT22;7667;51.232;17.110;2023-04-01T19:33:44;7.90;99.90
15133;DHT22;7667;51.232;17.110;2023-04-01T19:36:50;7.90;99.90
15133;DHT22;7667;51.232;17.110;2023-04-01T19:51:59;7.70;99.90
15133;DHT22;7667;51.232;17.110;2023-04-01T19:57:46;7.70;99.90
15133;DHT22;7667;51.232;17.110;2023-04-01T20:00:43;7.70;99.90
15133;DHT22;7667;51.232;17.110;2023-04-01T20:06:28;7.60;99.90
15133;DHT22;7667;51.232;17.110;2023-04-01T20:12:03;7.50;99.90
15133;DHT22;7667;51.232;17.110;2023-04-01T20:25:52;7.40;99.90
15133;DHT22;7667;51.232;17.110;2023-04-01T20:28:58;7.40;99.90
15133;DHT22;7667;51.232;17.110;2023-04-01T20:37:44;7.40;99.90
15133;DHT22;7667;51.232;17.110;2023-04-01T20:40:40;7.40;99.90
15133;DHT22;7667;51.232;17.110;2023-04-01T20:44:04;7.30;99.90
15133;DHT22;7667;51.232;17.110;2023-04-01T20:46:46;7.30;99.90
15133;DHT22;7667;51.232;17.110;2023-04-01T20:49:41;7.30;99.90
15133;DHT22;7667;51.232;17.110;2023-04-01T20:52:45;7.30;99.90
15133;DHT22;7667;51.232;17.110;2023-04-01T21:01:44;7.20;99.90
15133;DHT22;7667;51.232;17.110;2023-04-01T21:07:32;7.20;99.90
15133;DHT22;7667;51.232;17.110;2023-04-01T21:16:47;7.00;99.90
15133;DHT22;7667;51.232;17.110;2023-04-01T21:19:44;7.00;99.90
15133;DHT22;7667;51.232;17.110;2023-04-01T21:25:21;6.90;99.90
15133;DHT22;7667;51.232;17.110;2023-04-01T21:31:25;6.90;99.90
15133;DHT22;7667;51.232;17.110;2023-04-01T21:34:32;6.90;99.90
15133;DHT22;7667;51.232;17.110;2023-04-01T21:37:42;6.90;99.90
15133;DHT22;7667;51.232;17.110;2023-04-01T22:13:53;6.80;99.90
15133;DHT22;7667;51.232;17.110;2023-04-01T22:21:59;6.70;99.90
15133;DHT22;7667;51.232;17.110;2023-04-01T22:27:40;6.70;99.90
15133;DHT22;7667;51.232;17.110;2023-04-01T22:30:28;6.70;99.90
15133;DHT22;7667;51.232;17.110;2023-04-01T22:48:32;6.40;99.90
15133;DHT22;7667;51.232;17.110;2023-04-01T22:51:22;6.40;99.90
15133;DHT22;7667;51.232;17.110;2023-04-01T22:54:15;6.30;99.90
15133;DHT22;7667;51.232;17.110;2023-04-01T22:59:53;6.20;99.90
15133;DHT22;7667;51.232;17.110;2023-04-01T23:02:47;6.10;99.90
15133;DHT22;7667;51.232;17.110;2023-04-01T23:05:32;6.10;99.90
15133;DHT22;7667;51.232;17.110;2023-04-01T23:11:54;6.00;99.90
15133;DHT22;7667;51.232;17.110;2023-04-01T23:25:32;5.70;99.90
15133;DHT22;7667;51.232;17.110;2023-04-01T23:28:51;5.60;99.90
15133;DHT22;7667;51.232;17.110;2023-04-01T23:31:29;5.60;99.90
15133;DHT22;7667;51.232;17.110;2023-04-01T23:34:20;5.50;99.90
15133;DHT22;7667;51.232;17.110;2023-04-01T23:36:53;5.50;99.90
15133;DHT22;7667;51.232;17.110;2023-04-01T23:39:26;5.50;99.90
15133;DHT22;7667;51.232;17.110;2023-04-01T23:42:23;5.30;99.90
15133;DHT22;7667;51.232;17.110;2023-04-01T23:45:04;5.30;99.90
15133;DHT22;7667;51.232;17.110;2023-04-01T23:47:35;5.20;99.90
15133;DHT22;7667;51.232;17.110;2023-04-01T23:50:11;5.20;99.90
15133;DHT22;7667;51.232;17.110;2023-04-01T23:52:48;5.10;99.90
15133;DHT22;7667;51.232;17.110;2023-04-01T23:55:26;5.10;99.90
15133;DHT22;7667;51.232;17.110;2023-04-01T23:58:13;5.10;99.90
